Snydertown, PA

6:03 AM EST on December 07, 2019 (GMT -0500)
Bubba Joe's Smoke BBQ, Snydertown | | Change Station

Elev 519 ft 40.88 °N, 76.67 °W | Updated 3 seconds ago

Mostly Cloudy
Mostly Cloudy
27.1 °F
Feels Like 27 °F
N
0
Wind Variable Wind from South
Gusts 2.0 mph

Today
High -- | Low -- °F
--% Chance of Precip.
Yesterday
High -- | Low -- °F
Precip. -- in
Pressure 30.33 in
Visibility 10.0 miles
Clouds Mostly Cloudy 4500 ft
Windchill 27 °F
Dew Point 26 °F
Humidity 96%
Rainfall 0.00 in
Snow Depth Not available.
7:17 AM 4:38 PM
Waxing Gibbous, 78% visible
METAR KSEG 071053Z AUTO 34007KT 10SM BKN045 00/M07 A3032 RMK AO2 SLP271 T00001072
Pressure 30.33 in
Visibility 10.0 miles
Clouds Mostly Cloudy 4500 ft
Windchill 27 °F
Dew Point 26 °F
Humidity 96%
Rainfall 0.00 in
Snow Depth Not available.
7:17 AM 4:38 PM
Waxing Gibbous, 78% visible
METAR KSEG 071053Z AUTO 34007KT 10SM BKN045 00/M07 A3032 RMK AO2 SLP271 T00001072

Get Severe Weather Alerts

Thanks for signing up!

Be on the lookout for a verification email in your inbox.

You'll start receiving the daily forecast at 6 AM.

×

10-Day Weather Forecast

Almanac

Astronomy

Dec. 07, 2019 Rise Set
Actual Time
Civil Twilight
Nautical Twilight
Astronomical Twilight
Moon
Length of Visible Light
Length of Day
Tomorrow will be .
, % of the Moon is Illuminated

Today's Extremes

State Highs State Lows

Community

WunderPhotos

Category 6

Welcome to Category 6. This is the collective home for Weather Underground's featured writeups by Dr. Jeff Masters (right), Bob Henson (left), Chris Burt, and other regular contributors.

Nearby

Air Quality

  Air Quality AQ Index Pollutant
Not available.

Snow Depth

Station Depth Elevation

Earthquake Activity

City Distance Mag. Time & Date
Minimum magnitude displayed is 2.5.

Coastal Water Temperatures

Place Temperature

Stations

Nearby Weather Stations

Station Location Temp. Windchill Dew Point Humidity Wind Precip. Elev Updated Type
                   

Watches & Warnings

There are currently no watches in effect.